Terminal Aerodrome Forecast
Issued by NWS Cleveland, OH

Home | Current Version | Previous Version | Text Only | Print | Product List | Glossary On
Versions: 1 2 3 4 5 6 7 8 9 10 11 12 13 14 15 16 17 18 19 20 21 22
463
FTUS41 KCLE 211722
TAFYNG
TAF
KYNG 211722Z 2118/2218 18008KT P6SM OVC250
     FM220000 18008KT P6SM BKN120 OVC250
     FM220300 18005KT 6SM BR SCT025 OVC120
     FM220600 16005KT 4SM BR SCT012 OVC025
      TEMPO 2209/2213 1SM BR BKN012
     FM221500 09005KT 6SM BR BKN025=

USA.gov is the U.S. government's official web portal to all federal, state and local government web resources and services.